Latest Coastal Weather Observations for Gabo Island (VIC)

IDN60701

Issued at 10:41 pm EDT Monday 23 October 2017 (issued every 10 minutes, with the page automatically refreshed every 10 minutes)

About coastal observations | Map of coastal stations | Coastal observations for NSW | Marine services | Other Formats
Station Details ID: 084016 Name: GABO ISLAND LIGHTHOUSE Lat: -37.57 Lon: 149.92 Height: 15.2 m
Data from the previous 72 hours. | See also: Recent months at Gabo Island (VIC)
Date/Time
EDT
Temp
°C
Wind Pressure Rain since
9am
mm
Weather Cloud Vis
km
Sea
Height
m
Swell
Dir  Spd
kts
Gust
kts
hPa Trend Height
m
Period
s
Dir
23/10:30pm 13.2 NW 3 5 1018.9 - 0.0 - - - - - - -
23/10:00pm 12.2 N 5 6 1018.6 - 0.0 - - - - - - -
23/09:30pm 12.5 N 4 5 1018.6 - 0.0 - - - - - - -
23/09:00pm 13.5 CALM 0 0 1018.5 - 0.0 Fine Clear 40 1 1.0 - -
23/08:30pm 13.8 CALM 0 0 1018.3 - 0.0 - - - - - - -
23/08:00pm 13.8 CALM 0 0 1017.9 - 0.0 - - - - - - -
23/07:30pm 14.4 CALM 0 3 1017.5 - 0.0 - - - - - - -
23/07:00pm 15.3 S 3 4 1017.5 - 0.0 - - - - - - -
23/06:30pm 15.6 SSW 5 6 1017.5 - 0.0 - - - - - - -
23/06:00pm 16.1 S 5 6 1017.1 - 0.0 - - - - - - -
23/05:30pm 16.5 S 6 7 1017.1 - 0.0 - - - - - - -
23/05:00pm 16.4 S 7 9 1016.9 - 0.0 - - - - - - -
23/04:30pm 16.9 S 10 12 1016.8 - 0.0 - - - - - - -
23/04:00pm 16.9 S 10 12 1016.7 - 0.0 - - - - - - -
23/03:30pm 17.2 S 13 15 1016.8 - 0.0 - - - - - - -
23/03:00pm 17.4 S 14 16 1016.8 - 0.0 Fine Mostly clear 50 1 1.0 - -
23/02:30pm 17.0 SSW 16 19 1016.8 - 0.0 - - - - - - -
23/02:00pm 16.3 SSW 18 22 1016.9 - 0.0 - - - - - - -
23/01:30pm 16.0 SSW 21 25 1016.8 - 0.0 - - - - - - -
23/01:00pm 15.7 SSW 22 25 1017.0 - 0.0 - - - - - - -
23/12:30pm 15.8 SSW 21 25 1017.1 - 0.0 - - - - - - -
23/12:00pm 15.7 SSW 22 25 1017.4 - 0.0 - - - - - - -
23/11:30am 15.8 SSW 18 21 1017.7 - 0.0 - - - - - - -
23/11:00am 16.3 SSW 11 13 1017.7 - 0.0 - - - - - - -
23/10:30am 17.3 WSW 14 17 1017.9 - 0.0 - - - - - - -
23/10:00am 16.6 WSW 15 18 1017.8 - 0.0 - - - - - - -
23/09:30am 16.5 WSW 16 18 1017.7 - 0.0 - - - - - - -
23/09:00am 15.7 W 17 20 1017.5 - 0.0 Fine Mostly clear 50 1 1.0 - -
23/08:30am 14.8 W 16 20 1017.3 - 0.0 - - - - - - -
23/08:00am 14.3 W 16 20 1017.2 - 0.0 - - - - - - -
23/07:30am 13.8 W 17 21 1017.0 - 0.0 - - - - - - -
23/07:00am 13.5 W 16 21 1016.8 - 0.0 - - - - - - -
23/06:30am 13.1 W 17 21 1016.5 - 0.0 - - - - - - -
23/06:00am 13.1 W 19 23 1016.2 - 0.0 - - - - - - -
23/05:30am 13.0 W 17 21 1016.1 - 0.0 - - - - - - -
23/05:00am 13.0 W 15 19 1016.1 - 0.0 - - - - - - -
23/04:30am 13.0 W 16 20 1015.9 - 0.0 - - - - - - -
23/04:00am 13.0 W 17 20 1016.1 - 0.0 - - - - - - -
23/03:30am 12.9 W 16 20 1016.1 - 0.0 - - - - - - -
23/03:00am 13.1 W 17 19 1016.2 - 0.0 Fine Mostly clear 40 1 1.0 - -
23/02:30am 13.0 W 16 19 1016.3 - 0.0 - - - - - - -
23/02:00am 12.9 W 14 18 1016.4 - 0.0 - - - - - - -
23/01:30am 13.2 W 14 17 1016.6 - 0.0 - - - - - - -
23/01:00am 13.0 W 14 17 1016.8 - 0.0 - - - - - - -
23/12:30am 13.1 W 15 17 1016.9 - 0.0 - - - - - - -
23/12:00am 13.3 W 14 17 1016.9 - 0.0 - - - - - - -
 
Date/Time
EDT
Temp
°C
Wind Pressure Rain since
9am
mm
Weather Cloud Vis
km
Sea
Height
m
Swell
Dir  Spd
kts
Gust
kts
hPa Trend Height
m
Period
s
Dir
22/11:30pm 13.5 W 14 17 1017.1 - 0.0 - - - - - - -
22/11:00pm 13.6 W 14 18 1016.9 - 0.0 - - - - - - -
22/10:30pm 13.8 W 13 16 1016.7 - 0.0 - - - - - - -
22/10:00pm 13.6 WSW 15 18 1016.7 - 0.0 - - - - - - -
22/09:30pm 13.7 W 15 17 1016.5 - 0.0 - - - - - - -
22/09:00pm 13.9 WSW 15 19 1016.3 - 0.0 Fine Mostly clear 40 1 1.0 - -
22/08:30pm 14.2 WSW 15 18 1015.9 - 0.0 - - - - - - -
22/08:00pm 14.4 WSW 18 23 1015.5 - 0.0 - - - - - - -
22/07:30pm 14.9 SW 20 24 1015.1 - 0.0 - - - - - - -
22/07:00pm 14.8 SW 22 25 1014.7 - 0.0 - - - - - - -
22/06:30pm 15.1 SW 23 26 1014.5 - 0.0 - - - - - - -
22/06:00pm 15.3 SW 25 30 1014.1 - 0.0 - - - - - - -
22/05:30pm 15.6 SW 25 31 1014.0 - 0.0 - - - - - - -
22/05:00pm 15.5 SW 24 30 1013.6 - 0.0 - - - - - - -
22/04:30pm 15.6 SW 25 29 1013.6 - 0.0 - - - - - - -
22/04:00pm 15.0 SW 23 29 1013.5 - 0.0 - - - - - - -
22/03:30pm 15.1 SW 26 32 1013.5 - 0.0 - - - - - - -
22/03:00pm 15.3 SW 24 29 1013.7 - 0.0 Distant precip. Mostly cloudy 25 1 1.0 - -
22/02:30pm 14.8 SW 27 32 1013.8 - 0.0 - - - - - - -
22/02:00pm 15.2 SW 23 30 1014.2 - 0.0 - - - - - - -
22/01:30pm 14.7 SW 22 27 1014.3 - 0.0 - - - - - - -
22/01:00pm 15.5 SW 20 24 1014.4 - 0.0 - - - - - - -
22/12:30pm 15.1 WSW 18 23 1014.6 - 0.0 - - - - - - -
22/12:00pm 15.0 WSW 19 24 1014.9 - 0.0 - - - - - - -
22/11:30am 14.8 WSW 18 22 1015.1 - 0.0 - - - - - - -
22/11:00am 15.1 WSW 19 25 1015.0 - 0.0 - - - - - - -
22/10:30am 15.7 WSW 17 21 1015.0 - 0.0 - - - - - - -
22/10:00am 15.0 W 16 20 1014.9 - 0.0 - - - - - - -
22/09:30am 14.6 WSW 18 22 1015.0 - 0.0 - - - - - - -
22/09:00am 14.8 W 17 24 1014.8 - 0.0 Fine Mostly cloudy 40 1 1.0 - -
22/08:30am 14.0 WSW 19 24 1014.9 - 0.0 - - - - - - -
22/08:00am 13.2 W 20 24 1014.7 - 0.0 - - - - - - -
22/07:30am 13.1 W 18 22 1014.6 - 0.0 - - - - - - -
22/07:00am 12.3 W 18 24 1014.7 - 0.0 - - - - - - -
22/06:30am 12.0 W 19 22 1014.7 - 0.0 - - - - - - -
22/06:00am 12.0 W 18 22 1014.4 - 0.0 - - - - - - -
22/05:30am 12.2 W 19 24 1014.5 - 0.0 - - - - - - -
22/05:00am 12.4 W 19 25 1014.6 - 0.0 - - - - - - -
22/04:30am 12.3 W 17 23 1014.8 - 0.0 - - - - - - -
22/04:00am 12.4 W 19 23 1015.0 - 0.0 - - - - - - -
22/03:30am 12.3 W 19 24 1015.1 - 0.0 - - - - - - -
22/03:00am 12.2 W 18 23 1015.5 - 0.0 Fine Cloudy 40 1 1.0 - -
22/02:30am 12.1 W 18 23 1015.8 - 0.0 - - - - - - -
22/02:00am 12.0 W 19 22 1016.1 - 0.0 - - - - - - -
22/01:30am 12.4 W 18 23 1016.7 - 0.0 - - - - - - -
22/01:00am 12.6 W 16 21 1016.9 - 0.0 - - - - - - -
22/12:30am 12.7 W 15 19 1017.3 - 0.0 - - - - - - -
22/12:00am 12.8 W 17 19 1017.5 - 0.0 - - - - - - -
 
Date/Time
EDT
Temp
°C
Wind Pressure Rain since
9am
mm
Weather Cloud Vis
km
Sea
Height
m
Swell
Dir  Spd
kts
Gust
kts
hPa Trend Height
m
Period
s
Dir
21/11:30pm 12.8 W 16 20 1017.8 - 0.0 - - - - - - -
21/11:00pm 12.8 W 16 20 1018.0 - 0.0 - - - - - - -
21/10:30pm 12.5 W 15 19 1018.3 - 0.0 - - - - - - -
21/10:00pm 12.8 W 14 18 1018.4 - 0.0 - - - - - - -
21/09:30pm 13.0 W 15 19 1018.5 - 0.0 - - - - - - -
21/09:00pm 13.2 W 15 19 1018.6 - 0.0 Fine Mostly cloudy 40 1 1.0 - -
21/08:30pm 13.6 WSW 19 23 1018.6 - 0.0 - - - - - - -
21/08:00pm 13.8 WSW 18 22 1018.5 - 0.0 - - - - - - -
21/07:30pm 13.7 WSW 19 23 1018.6 - 0.0 - - - - - - -
21/07:00pm 14.0 SW 20 25 1018.6 - 0.0 - - - - - - -
21/06:30pm 14.3 SW 26 31 1018.1 - 0.0 - - - - - - -
21/06:00pm 14.3 SW 27 32 1018.3 - 0.0 - - - - - - -
21/05:30pm 14.6 SW 27 32 1018.3 - 0.0 - - - - - - -
21/05:00pm 15.0 SW 23 29 1018.5 - 0.0 - - - - - - -
21/04:30pm 14.9 WSW 23 30 1018.7 - 0.0 - - - - - - -
21/04:00pm 14.7 SW 27 32 1019.0 - 0.0 - - - - - - -
21/03:30pm 14.7 SW 28 33 1019.2 - 0.0 - - - - - - -
21/03:00pm 14.3 SW 29 32 1019.4 - 0.0 Fine Mostly cloudy 40 1 1.0 - -
21/02:30pm 15.3 WSW 18 27 1020.0 - 0.0 - - - - - - -
21/02:00pm 16.1 WSW 19 23 1020.3 - 0.0 - - - - - - -
21/01:30pm 14.6 SW 20 29 1020.6 - 0.0 - - - - - - -
21/01:00pm 14.9 SW 22 26 1020.7 - 0.0 - - - - - - -
21/12:30pm 14.5 SW 21 25 1021.0 - 0.0 - - - - - - -
21/12:00pm 15.6 WSW 19 24 1021.5 - 0.0 - - - - - - -
21/11:30am 15.3 WSW 19 23 1021.9 - 0.0 - - - - - - -
21/11:00am 14.4 WSW 19 23 1022.2 - 0.0 - - - - - - -
21/10:30am 13.8 WSW 18 22 1022.6 - 0.0 - - - - - - -
21/10:00am 13.0 W 17 22 1022.8 - 0.0 - - - - - - -
21/09:30am 13.0 W 19 22 1023.0 - 0.0 - - - - - - -
21/09:00am 12.4 W 19 24 1023.2 - 0.0 Fine Cloudy 35 1 1.0 - -
21/08:30am 12.1 W 18 21 1023.2 - 0.0 - - - - - - -
21/08:00am 11.9 W 19 28 1023.1 - 0.0 - - - - - - -
21/07:30am 11.7 W 19 23 1023.2 - 0.0 - - - - - - -
21/07:00am 11.6 W 17 22 1023.3 - 0.0 - - - - - - -
21/06:30am 11.6 W 17 21 1023.2 - 0.0 - - - - - - -
21/06:00am 11.7 W 19 24 1023.0 - 0.0 - - - - - - -
21/05:30am 11.7 W 19 23 1023.0 - 0.0 - - - - - - -
21/05:00am 11.8 W 19 23 1023.0 - 0.0 - - - - - - -
21/04:30am 11.7 W 19 25 1023.1 - 0.0 - - - - - - -
21/04:00am 11.7 W 15 20 1023.4 - 0.0 - - - - - - -
21/03:30am 11.9 W 15 18 1023.7 - 0.0 - - - - - - -
21/03:00am 12.0 W 15 19 1023.8 - 0.0 Fine Partly cloudy 30 1 1.0 - -
21/02:30am 12.3 WSW 17 22 1024.2 - 0.0 - - - - - - -
21/02:17am 12.7 WSW 20 30 1024.5 - 0.0 - - - - - - -
21/02:00am 13.1 SW 23 27 1024.5 - 0.0 - - - - - - -
21/01:30am 12.5 WSW 17 23 1025.0 - 0.0 - - - - - - -
21/01:00am 12.8 WSW 14 18 1025.1 - 0.0 - - - - - - -
21/12:30am 12.6 W 16 21 1025.4 - 0.0 - - - - - - -
21/12:00am 12.8 W 15 20 1025.4 - 0.0 - - - - - - -
 
Date/Time
EDT
Temp
°C
Wind Pressure Rain since
9am
mm
Weather Cloud Vis
km
Sea
Height
m
Swell
Dir  Spd
kts
Gust
kts
hPa Trend Height
m
Period
s
Dir
20/11:30pm 13.3 WSW 17 22 1025.5 - 0.0 - - - - - - -
20/11:00pm 13.6 SW 22 27 1025.3 - 0.0 - - - - - - -

Other Formats:

Comma delimited format used in spreadsheet applications
http://www.bom.gov.au/fwo/IDN60701/IDN60701.94933.axf

JavaScript Object Notation format (JSON) in row-major order
http://www.bom.gov.au/fwo/IDN60701/IDN60701.94933.json